createdAt,value
2022-09-23T00:02:37.214Z,1022.39
2022-09-23T00:17:53.119Z,1022.39
2022-09-23T00:33:11.085Z,1022.34
2022-09-23T00:48:28.057Z,1022.42
2022-09-23T01:03:45.037Z,1022.37
2022-09-23T01:19:01.015Z,1022.29
2022-09-23T01:19:42.903Z,1022.29
2022-09-23T01:34:19.025Z,1022.24
2022-09-23T01:49:35.007Z,1022.21
2022-09-23T02:04:50.946Z,1022.24
2022-09-23T02:20:06.959Z,1022.22
2022-09-23T02:35:23.891Z,1022.3
2022-09-23T02:50:40.904Z,1022.33
2022-09-23T03:05:57.850Z,1022.44
2022-09-23T03:21:13.859Z,1022.37
2022-09-23T03:36:30.794Z,1022.26
2022-09-23T03:51:46.805Z,1022.37
2022-09-23T04:07:02.780Z,1022.32
2022-09-23T04:22:18.765Z,1022.43
2022-09-23T04:37:35.709Z,1022.65
2022-09-23T04:52:52.722Z,1022.81
2022-09-23T05:08:09.698Z,1022.84
2022-09-23T05:23:25.684Z,1022.9
2022-09-23T05:38:42.622Z,1022.89
2022-09-23T05:53:58.633Z,1022.99
2022-09-23T06:09:14.608Z,1023.14
2022-09-23T06:24:31.869Z,1022.92
2022-09-23T06:39:49.555Z,1022.9
2022-09-23T06:55:06.498Z,1022.95
2022-09-23T07:10:22.502Z,1023
2022-09-23T07:25:38.441Z,1023.03
2022-09-23T07:40:55.454Z,1023.16
2022-09-23T07:56:11.390Z,1023.1
2022-09-23T08:11:27.389Z,1023.05
2022-09-23T08:26:44.326Z,1022.9
2022-09-23T08:42:02.342Z,1022.8
2022-09-23T08:57:19.267Z,1022.74
2022-09-23T09:12:35.270Z,1022.33
2022-09-23T09:27:51.221Z,1022.34
2022-09-23T09:43:10.210Z,1022.18
2022-09-23T09:58:27.096Z,1022.08
2022-09-23T10:13:44.088Z,1021.87
2022-09-23T10:29:00.087Z,1021.49
2022-09-23T10:44:17.023Z,1021.11
2022-09-23T10:59:33.009Z,1020.9
2022-09-23T11:14:48.940Z,1020.77
2022-09-23T11:30:04.938Z,1020.5
2022-09-23T11:45:21.885Z,1020.2
2022-09-23T12:00:39.392Z,1020.18
2022-09-23T12:15:55.826Z,1019.83
2022-09-23T12:31:11.903Z,1019.66
2022-09-23T12:46:28.759Z,1019.45
2022-09-23T13:01:44.977Z,1019.05
2022-09-23T13:17:00.757Z,1018.73
2022-09-23T13:32:17.661Z,1018.65
2022-09-23T13:47:35.639Z,1018.56
2022-09-23T14:02:51.607Z,1018.49
2022-09-23T14:18:07.580Z,1018.39
2022-09-23T14:33:24.547Z,1018.28
2022-09-23T14:48:42.519Z,1018.19
2022-09-23T15:03:59.492Z,1017.98
2022-09-23T15:19:15.453Z,1017.87
2022-09-23T15:34:32.419Z,1017.85
2022-09-23T15:49:48.426Z,1017.72
2022-09-23T15:50:34.282Z,1017.72
2022-09-23T16:05:05.370Z,1017.71
2022-09-23T16:20:22.376Z,1017.66
2022-09-23T16:35:40.297Z,1017.71
2022-09-23T16:50:57.302Z,1017.58
2022-09-23T17:06:13.236Z,1017.58
2022-09-23T17:21:29.246Z,1017.54
2022-09-23T17:36:46.205Z,1017.68
2022-09-23T17:52:02.189Z,1017.62
2022-09-23T18:07:18.152Z,1017.6
2022-09-23T18:22:35.132Z,1017.7
2022-09-23T18:37:53.089Z,1017.65
2022-09-23T18:53:10.059Z,1017.88
2022-09-23T19:08:26.024Z,1017.97
2022-09-23T19:23:42.003Z,1018.2
2022-09-23T19:38:58.969Z,1018.43
2022-09-23T19:54:14.938Z,1018.33
2022-09-23T20:09:30.899Z,1018.41
2022-09-23T20:24:47.847Z,1018.47
2022-09-23T20:40:06.915Z,1018.53
2022-09-23T20:55:22.793Z,1018.64
2022-09-23T21:10:38.803Z,1018.72
2022-09-23T21:25:54.725Z,1018.56
2022-09-23T21:41:11.777Z,1018.56
2022-09-23T21:56:28.665Z,1018.64
2022-09-23T22:11:45.669Z,1018.65
2022-09-23T22:27:01.609Z,1018.46
2022-09-23T22:42:18.610Z,1018.29
2022-09-23T22:57:34.543Z,1018.19
2022-09-23T23:12:50.551Z,1018.3
2022-09-23T23:28:06.491Z,1018.13
2022-09-23T23:43:23.489Z,1017.94
2022-09-23T23:58:40.429Z,1017.71
